createdAt,value
2018-01-17T00:00:09.770Z,16.90
2018-01-17T00:02:37.460Z,8.53
2018-01-17T00:05:05.312Z,12.60
2018-01-17T00:07:33.128Z,9.50
2018-01-17T00:10:00.825Z,12.63
2018-01-17T00:12:28.534Z,6.03
2018-01-17T00:14:56.251Z,7.80
2018-01-17T00:17:23.964Z,8.83
2018-01-17T00:19:51.674Z,6.80
2018-01-17T00:22:19.397Z,8.63
2018-01-17T00:24:47.120Z,5.00
2018-01-17T00:27:14.828Z,3.83
2018-01-17T00:29:42.491Z,5.00
2018-01-17T00:32:10.290Z,4.57
2018-01-17T00:34:38.013Z,7.30
2018-01-17T00:37:05.739Z,4.90
2018-01-17T00:39:33.426Z,4.93
2018-01-17T00:42:01.148Z,7.17
2018-01-17T00:44:28.891Z,12.77
2018-01-17T00:46:56.623Z,6.67
2018-01-17T00:49:24.357Z,6.37
2018-01-17T00:51:52.029Z,7.97
2018-01-17T00:54:20.024Z,5.47
2018-01-17T00:56:47.691Z,4.80
2018-01-17T00:59:15.412Z,3.80
2018-01-17T01:01:43.234Z,3.60
2018-01-17T01:04:10.951Z,5.60
2018-01-17T01:06:38.613Z,4.70
2018-01-17T01:09:06.309Z,5.80
2018-01-17T01:11:34.014Z,7.37
2018-01-17T01:14:01.732Z,12.67
2018-01-17T01:16:29.430Z,9.27
2018-01-17T01:18:57.123Z,16.63
2018-01-17T01:21:24.891Z,8.70
2018-01-17T01:23:52.656Z,14.37
2018-01-17T01:26:20.502Z,11.60
2018-01-17T01:28:48.252Z,14.63
2018-01-17T01:31:15.939Z,9.40
2018-01-17T01:33:45.130Z,12.20
2018-01-17T01:36:12.893Z,12.77
2018-01-17T01:38:40.657Z,14.10
2018-01-17T01:41:08.370Z,15.63
2018-01-17T01:43:36.045Z,13.03
2018-01-17T01:46:03.729Z,17.30
2018-01-17T01:48:31.471Z,27.90
2018-01-17T01:50:59.157Z,19.10
2018-01-17T01:53:26.888Z,12.90
2018-01-17T01:55:54.606Z,16.40
2018-01-17T01:58:22.383Z,11.40
2018-01-17T02:00:50.258Z,8.63
2018-01-17T02:03:17.996Z,8.43
2018-01-17T02:05:45.664Z,3.87
2018-01-17T02:08:13.364Z,4.03
2018-01-17T02:10:41.179Z,7.57
2018-01-17T02:13:08.854Z,8.73
2018-01-17T02:15:36.531Z,10.73
2018-01-17T02:18:04.266Z,12.33
2018-01-17T02:20:32.015Z,16.33
2018-01-17T02:22:59.714Z,11.67
2018-01-17T02:25:27.498Z,20.33
2018-01-17T02:27:55.247Z,11.90
2018-01-17T02:30:22.924Z,12.30
2018-01-17T02:32:50.668Z,11.27
2018-01-17T02:35:18.416Z,9.97
2018-01-17T02:37:46.115Z,9.60
2018-01-17T02:40:25.643Z,10.27
2018-01-17T02:42:53.363Z,8.83
2018-01-17T02:45:21.079Z,8.93
2018-01-17T02:47:48.849Z,6.03
2018-01-17T02:50:16.497Z,5.73
2018-01-17T02:52:44.147Z,4.87
2018-01-17T02:55:11.889Z,5.57
2018-01-17T02:57:39.580Z,7.50
2018-01-17T03:00:07.378Z,7.63
2018-01-17T03:02:35.105Z,10.27
2018-01-17T03:05:02.796Z,11.47
2018-01-17T03:07:30.500Z,11.90
2018-01-17T03:09:58.339Z,12.07
2018-01-17T03:12:26.078Z,12.83
2018-01-17T03:14:53.802Z,15.03
2018-01-17T03:17:21.521Z,17.90
2018-01-17T03:19:49.186Z,15.07
2018-01-17T03:22:16.973Z,15.50
2018-01-17T03:24:44.643Z,14.73
2018-01-17T03:27:12.345Z,8.20
2018-01-17T03:29:40.056Z,6.30
2018-01-17T03:32:07.801Z,10.53
2018-01-17T03:34:35.756Z,8.37
2018-01-17T03:37:03.534Z,8.93
2018-01-17T03:39:31.215Z,9.43
2018-01-17T03:41:58.961Z,8.57
2018-01-17T03:44:26.666Z,14.93
2018-01-17T03:46:54.413Z,12.60
2018-01-17T03:49:22.160Z,15.77
2018-01-17T03:51:49.929Z,19.20
2018-01-17T03:54:17.676Z,13.40
2018-01-17T03:56:45.473Z,12.73
2018-01-17T03:59:13.166Z,13.70
2018-01-17T04:01:40.847Z,14.77
2018-01-17T04:04:08.585Z,10.20
2018-01-17T04:06:36.260Z,15.77
2018-01-17T04:09:04.022Z,14.13
2018-01-17T04:11:31.758Z,17.00
2018-01-17T04:13:59.436Z,10.23
2018-01-17T04:16:27.209Z,10.20
2018-01-17T04:18:54.970Z,11.80
2018-01-17T04:21:22.674Z,13.17
2018-01-17T04:23:50.423Z,22.70
2018-01-17T04:26:18.140Z,20.77
2018-01-17T04:28:45.883Z,15.47
2018-01-17T04:31:13.564Z,14.93
2018-01-17T04:33:41.388Z,11.70
2018-01-17T04:36:09.290Z,13.53
2018-01-17T04:38:36.967Z,18.87
2018-01-17T04:41:04.769Z,17.93
2018-01-17T04:43:32.496Z,17.03
2018-01-17T04:46:00.203Z,12.03
2018-01-17T04:48:27.924Z,30.63
2018-01-17T04:50:55.730Z,26.53
2018-01-17T04:53:23.538Z,20.10
2018-01-17T04:55:51.256Z,18.23
2018-01-17T04:58:19.048Z,18.30
2018-01-17T05:00:46.757Z,14.00
2018-01-17T05:03:14.480Z,21.27
2018-01-17T05:05:42.173Z,12.50
2018-01-17T05:08:09.910Z,11.13
2018-01-17T05:10:37.630Z,9.43
2018-01-17T05:15:44.482Z,12.00
2018-01-17T05:18:12.271Z,9.43
2018-01-17T05:20:39.992Z,7.23
2018-01-17T05:23:07.666Z,6.87
2018-01-17T05:25:35.392Z,9.23
2018-01-17T05:28:03.093Z,6.57
2018-01-17T05:30:30.879Z,7.50
2018-01-17T05:32:58.578Z,8.43
2018-01-17T05:35:26.274Z,9.43
2018-01-17T05:37:54.403Z,9.13
2018-01-17T05:40:22.081Z,6.07
2018-01-17T05:42:50.081Z,11.70
2018-01-17T05:45:17.889Z,12.30
2018-01-17T05:47:45.559Z,11.07
2018-01-17T05:50:13.348Z,12.27
2018-01-17T05:52:41.230Z,12.13
2018-01-17T05:55:09.073Z,9.67
2018-01-17T05:57:36.758Z,8.53
2018-01-17T06:00:04.465Z,8.00
2018-01-17T06:02:32.307Z,9.00
2018-01-17T06:05:00.025Z,18.13
2018-01-17T06:07:28.262Z,10.00
2018-01-17T06:09:56.134Z,8.07
2018-01-17T06:12:23.953Z,9.80
2018-01-17T06:14:51.645Z,6.70
2018-01-17T06:17:19.485Z,8.17
2018-01-17T06:19:47.185Z,6.83
2018-01-17T06:22:14.960Z,11.10
2018-01-17T06:24:42.899Z,7.80
2018-01-17T06:27:10.596Z,13.13
2018-01-17T06:29:38.305Z,14.20
2018-01-17T06:32:06.070Z,14.10
2018-01-17T06:34:33.909Z,14.00
2018-01-17T06:37:01.576Z,11.70
2018-01-17T06:39:29.465Z,12.23
2018-01-17T06:41:57.162Z,13.90
2018-01-17T06:44:24.911Z,12.73
2018-01-17T06:46:53.710Z,12.80
2018-01-17T06:49:21.468Z,12.13
2018-01-17T06:51:49.214Z,12.13
2018-01-17T06:54:16.961Z,13.77
2018-01-17T06:56:44.718Z,12.10
2018-01-17T06:59:12.493Z,11.90
2018-01-17T07:01:40.243Z,10.93
2018-01-17T07:04:07.924Z,13.87
2018-01-17T07:06:35.686Z,15.00
2018-01-17T07:09:03.550Z,13.37
2018-01-17T07:11:31.335Z,24.80
2018-01-17T07:13:59.242Z,7.33
2018-01-17T07:16:27.271Z,2.50
2018-01-17T07:18:55.030Z,4.80
2018-01-17T07:21:22.736Z,1.80
2018-01-17T07:23:50.455Z,1.27
2018-01-17T07:26:18.191Z,9.10
2018-01-17T07:28:46.151Z,1.10
2018-01-17T07:31:14.145Z,1.27
2018-01-17T07:33:41.872Z,1.33
2018-01-17T07:36:09.692Z,0.40
2018-01-17T07:38:37.415Z,1.87
2018-01-17T07:41:05.146Z,0.53
2018-01-17T07:43:32.860Z,2.70
2018-01-17T07:46:00.584Z,0.40
2018-01-17T07:48:28.255Z,1.63
2018-01-17T07:50:56.217Z,0.50
2018-01-17T07:53:23.968Z,0.40
2018-01-17T07:55:51.756Z,0.30
2018-01-17T07:58:19.582Z,0.30
2018-01-17T08:00:47.373Z,1.33
2018-01-17T08:03:15.067Z,0.27
2018-01-17T08:05:42.802Z,0.50
2018-01-17T08:08:10.607Z,0.30
2018-01-17T08:10:38.441Z,1.27
2018-01-17T08:13:06.293Z,2.40
2018-01-17T08:15:34.018Z,0.50
2018-01-17T08:18:01.732Z,0.43
2018-01-17T08:20:29.474Z,0.30
2018-01-17T08:22:57.321Z,0.60
2018-01-17T08:25:25.052Z,0.80
2018-01-17T08:27:52.804Z,0.30
2018-01-17T08:30:21.274Z,1.23
2018-01-17T08:32:48.973Z,0.50
2018-01-17T08:35:16.764Z,0.43
2018-01-17T08:37:45.666Z,0.20
2018-01-17T08:40:13.437Z,0.50
2018-01-17T08:42:41.185Z,0.83
2018-01-17T08:45:08.960Z,0.70
2018-01-17T08:47:36.659Z,2.03
2018-01-17T08:50:04.427Z,0.50
2018-01-17T08:52:32.122Z,1.40
2018-01-17T08:54:59.925Z,0.60
2018-01-17T08:57:27.616Z,0.67
2018-01-17T08:59:55.364Z,2.43
2018-01-17T09:02:23.073Z,1.53
2018-01-17T09:04:50.806Z,3.40
2018-01-17T09:07:18.497Z,1.93
2018-01-17T09:09:46.260Z,1.10
2018-01-17T09:12:13.970Z,2.87
2018-01-17T09:14:42.230Z,2.70
2018-01-17T09:17:10.019Z,3.07
2018-01-17T09:19:37.742Z,2.60
2018-01-17T09:22:05.491Z,1.37
2018-01-17T09:24:33.259Z,0.60
2018-01-17T09:27:00.981Z,4.83
2018-01-17T09:29:28.682Z,0.80
2018-01-17T09:31:56.384Z,0.50
2018-01-17T09:34:24.099Z,0.87
2018-01-17T09:36:51.787Z,1.13
2018-01-17T09:39:19.582Z,0.40
2018-01-17T09:41:47.331Z,0.20
2018-01-17T09:44:15.036Z,0.83
2018-01-17T09:46:42.695Z,0.40
2018-01-17T09:49:10.413Z,0.40
2018-01-17T09:51:38.073Z,0.20
2018-01-17T09:54:05.782Z,0.97
2018-01-17T09:56:33.597Z,0.30
2018-01-17T09:59:01.369Z,0.20
2018-01-17T10:01:29.092Z,0.20
2018-01-17T10:03:56.900Z,0.20
2018-01-17T10:06:24.798Z,0.20
2018-01-17T10:08:52.545Z,0.20
2018-01-17T10:11:20.266Z,0.20
2018-01-17T10:13:48.142Z,0.30
2018-01-17T10:16:15.844Z,0.57
2018-01-17T10:18:43.548Z,1.80
2018-01-17T10:21:11.289Z,0.20
2018-01-17T10:23:38.998Z,0.30
2018-01-17T10:26:06.783Z,0.20
2018-01-17T10:28:34.549Z,0.83
2018-01-17T10:31:02.551Z,0.30
2018-01-17T10:33:30.235Z,0.60
2018-01-17T10:35:57.939Z,0.20
2018-01-17T10:38:25.707Z,0.20
2018-01-17T10:40:53.510Z,0.40
2018-01-17T10:43:21.274Z,3.03
2018-01-17T10:45:49.101Z,0.40
2018-01-17T10:48:16.809Z,0.30
2018-01-17T10:50:44.521Z,0.20
2018-01-17T10:53:12.235Z,0.30
2018-01-17T10:55:39.969Z,0.27
2018-01-17T10:58:07.794Z,1.33
2018-01-17T11:00:40.946Z,0.77
2018-01-17T11:03:08.660Z,0.30
2018-01-17T11:05:36.332Z,0.40
2018-01-17T11:08:04.111Z,0.20
2018-01-17T11:10:31.897Z,8.50
2018-01-17T11:12:59.648Z,0.30
2018-01-17T11:15:27.509Z,0.40
2018-01-17T11:17:55.241Z,0.93
2018-01-17T11:20:22.962Z,0.20
2018-01-17T11:22:50.694Z,0.40
2018-01-17T11:25:18.418Z,1.33
2018-01-17T11:27:46.209Z,0.60
2018-01-17T11:30:13.965Z,1.93
2018-01-17T11:32:41.726Z,0.63
2018-01-17T11:35:09.556Z,0.20
2018-01-17T11:37:37.257Z,0.40
2018-01-17T11:40:04.962Z,0.20
2018-01-17T11:42:32.825Z,0.30
2018-01-17T11:45:00.549Z,0.30
2018-01-17T11:47:28.287Z,0.20
2018-01-17T11:49:55.973Z,2.20
2018-01-17T11:52:23.741Z,0.30
2018-01-17T11:54:51.533Z,0.33
2018-01-17T11:57:19.326Z,0.40
2018-01-17T11:59:47.080Z,0.43
2018-01-17T12:02:14.794Z,0.40
2018-01-17T12:04:42.608Z,1.13
2018-01-17T12:07:10.342Z,0.20
2018-01-17T12:09:38.095Z,0.50
2018-01-17T12:12:05.887Z,2.63
2018-01-17T12:14:34.096Z,5.93
2018-01-17T12:17:01.827Z,1.50
2018-01-17T12:19:29.513Z,0.60
2018-01-17T12:21:57.275Z,0.40
2018-01-17T12:24:25.015Z,0.60
2018-01-17T12:26:52.778Z,0.90
2018-01-17T12:29:20.547Z,0.87
2018-01-17T12:31:48.253Z,1.13
2018-01-17T12:34:15.956Z,2.00
2018-01-17T12:36:43.712Z,1.10
2018-01-17T12:39:11.485Z,2.63
2018-01-17T12:41:39.233Z,2.50
2018-01-17T12:44:06.954Z,2.57
2018-01-17T12:46:34.712Z,0.90
2018-01-17T12:49:02.390Z,0.30
2018-01-17T12:51:30.160Z,0.40
2018-01-17T12:53:57.901Z,2.30
2018-01-17T12:56:25.915Z,0.40
2018-01-17T12:58:54.496Z,2.90
2018-01-17T13:01:22.281Z,0.40
2018-01-17T13:03:50.158Z,0.80
2018-01-17T13:06:18.056Z,0.60
2018-01-17T13:08:45.837Z,1.00
2018-01-17T13:11:13.626Z,0.67
2018-01-17T13:13:41.328Z,0.30
2018-01-17T13:16:09.053Z,0.40
2018-01-17T13:18:36.742Z,4.13
2018-01-17T13:21:04.540Z,4.40
2018-01-17T13:23:32.597Z,5.47
2018-01-17T13:26:00.620Z,2.77
2018-01-17T13:28:28.363Z,0.67
2018-01-17T13:30:56.070Z,8.33
2018-01-17T13:33:23.861Z,0.87
2018-01-17T13:35:51.650Z,0.97
2018-01-17T13:38:19.406Z,1.30
2018-01-17T13:40:47.116Z,2.83
2018-01-17T13:43:14.855Z,1.50
2018-01-17T13:45:42.738Z,0.57
2018-01-17T13:48:10.559Z,1.70
2018-01-17T13:50:38.335Z,1.07
2018-01-17T13:53:06.132Z,3.37
2018-01-17T13:55:33.845Z,1.33
2018-01-17T13:58:02.548Z,0.53
2018-01-17T14:00:30.363Z,0.30
2018-01-17T14:02:58.224Z,0.50
2018-01-17T14:05:25.963Z,0.97
2018-01-17T14:07:53.722Z,0.60
2018-01-17T14:10:21.427Z,4.90
2018-01-17T14:12:50.519Z,0.90
2018-01-17T14:15:18.232Z,0.70
2018-01-17T14:17:45.961Z,0.20
2018-01-17T14:20:16.695Z,1.20
2018-01-17T14:22:44.406Z,4.53
2018-01-17T14:25:12.120Z,0.30
2018-01-17T14:27:40.016Z,11.93
2018-01-17T14:30:07.826Z,0.60
2018-01-17T14:32:35.629Z,1.30
2018-01-17T14:35:04.624Z,2.23
2018-01-17T14:37:32.386Z,0.70
2018-01-17T14:40:00.333Z,1.50
2018-01-17T14:42:28.053Z,0.67
2018-01-17T14:44:55.846Z,5.80
2018-01-17T14:47:23.613Z,0.67
2018-01-17T14:49:51.365Z,0.60
2018-01-17T14:52:19.179Z,1.07
2018-01-17T14:54:46.923Z,0.70
2018-01-17T14:57:14.781Z,1.40
2018-01-17T14:59:42.571Z,0.93
2018-01-17T15:02:10.350Z,3.30
2018-01-17T15:04:38.105Z,0.40
2018-01-17T15:07:05.850Z,0.60
2018-01-17T15:09:33.573Z,1.67
2018-01-17T15:12:02.023Z,0.40
2018-01-17T15:14:29.752Z,0.43
2018-01-17T15:16:57.514Z,1.03
2018-01-17T15:19:25.406Z,0.50
2018-01-17T15:21:53.321Z,5.03
2018-01-17T15:24:21.219Z,0.40
2018-01-17T15:26:48.969Z,0.50
2018-01-17T15:29:16.744Z,7.00
2018-01-17T15:31:44.541Z,0.83
2018-01-17T15:34:12.320Z,1.37
2018-01-17T15:36:40.519Z,2.63
2018-01-17T15:39:08.262Z,0.47
2018-01-17T15:41:45.220Z,0.40
2018-01-17T15:44:21.822Z,0.67
2018-01-17T15:46:53.896Z,0.73
2018-01-17T15:52:08.426Z,0.70
2018-01-17T15:54:41.955Z,0.50
2018-01-17T15:57:12.526Z,3.60
2018-01-17T15:59:49.818Z,0.97
2018-01-17T16:02:31.358Z,5.50
2018-01-17T16:05:07.907Z,1.70
2018-01-17T16:10:16.652Z,4.10
2018-01-17T16:15:35.288Z,3.80
2018-01-17T16:18:04.314Z,1.03
2018-01-17T16:20:32.111Z,2.10
2018-01-17T16:23:00.566Z,3.40
2018-01-17T16:25:28.394Z,0.90
2018-01-17T16:27:56.156Z,1.00
2018-01-17T16:30:23.974Z,1.77
2018-01-17T16:32:53.232Z,15.03
2018-01-17T16:35:21.657Z,1.17
2018-01-17T16:37:49.496Z,10.53
2018-01-17T16:40:17.374Z,2.90
2018-01-17T16:42:45.197Z,1.33
2018-01-17T16:45:13.099Z,7.33
2018-01-17T16:47:40.923Z,1.30
2018-01-17T16:50:08.650Z,0.93
2018-01-17T16:52:36.503Z,1.23
2018-01-17T16:55:04.519Z,1.20
2018-01-17T16:57:32.264Z,6.50
2018-01-17T17:00:00.053Z,4.00
2018-01-17T17:02:27.813Z,2.50
2018-01-17T17:04:55.621Z,1.13
2018-01-17T17:07:23.390Z,0.40
2018-01-17T17:09:51.215Z,0.40
2018-01-17T17:12:18.965Z,3.50
2018-01-17T17:14:47.962Z,1.93
2018-01-17T17:17:15.819Z,0.77
2018-01-17T17:19:43.550Z,1.07
2018-01-17T17:22:11.360Z,3.70
2018-01-17T17:24:39.061Z,0.67
2018-01-17T17:27:06.823Z,4.57
2018-01-17T17:29:34.573Z,0.93
2018-01-17T17:32:03.471Z,0.67
2018-01-17T17:34:31.256Z,1.80
2018-01-17T17:36:59.000Z,0.73
2018-01-17T17:39:26.826Z,1.40
2018-01-17T17:41:54.572Z,0.40
2018-01-17T17:44:22.351Z,2.00
2018-01-17T17:46:50.153Z,0.50
2018-01-17T17:49:17.912Z,0.43
2018-01-17T17:51:45.693Z,3.00
2018-01-17T17:54:13.502Z,5.10
2018-01-17T17:56:41.222Z,3.17
2018-01-17T17:59:08.923Z,2.73
2018-01-17T18:01:36.981Z,2.20
2018-01-17T18:04:04.719Z,3.07
2018-01-17T18:06:32.466Z,1.47
2018-01-17T18:09:00.247Z,2.57
2018-01-17T18:11:28.116Z,1.37
2018-01-17T18:13:55.953Z,6.53
2018-01-17T18:16:23.719Z,2.57
2018-01-17T18:18:51.491Z,5.40
2018-01-17T18:21:19.420Z,9.30
2018-01-17T18:23:47.166Z,29.17
2018-01-17T18:26:15.295Z,2.17
2018-01-17T18:28:43.099Z,7.03
2018-01-17T18:31:10.945Z,17.67
2018-01-17T18:33:38.917Z,6.03
2018-01-17T18:36:06.967Z,3.33
2018-01-17T18:38:34.918Z,0.97
2018-01-17T18:41:02.862Z,1.60
2018-01-17T18:43:32.105Z,5.30
2018-01-17T18:45:59.928Z,5.50
2018-01-17T18:48:27.770Z,0.80
2018-01-17T18:50:55.674Z,1.97
2018-01-17T18:53:23.425Z,2.90
2018-01-17T18:55:51.242Z,2.03
2018-01-17T18:58:19.203Z,1.13
2018-01-17T19:00:47.004Z,2.00
2018-01-17T19:03:14.761Z,4.30
2018-01-17T19:05:42.539Z,0.70
2018-01-17T19:08:10.329Z,7.40
2018-01-17T19:10:38.301Z,2.63
2018-01-17T19:13:05.980Z,3.10
2018-01-17T19:15:33.721Z,0.40
2018-01-17T19:18:01.456Z,0.33
2018-01-17T19:20:29.181Z,1.47
2018-01-17T19:22:56.933Z,3.20
2018-01-17T19:25:24.680Z,3.00
2018-01-17T19:27:52.416Z,0.73
2018-01-17T19:30:20.228Z,0.60
2018-01-17T19:32:47.988Z,1.43
2018-01-17T19:35:16.764Z,0.50
2018-01-17T19:37:44.518Z,0.80
2018-01-17T19:40:12.703Z,1.70
2018-01-17T19:42:40.520Z,0.50
2018-01-17T19:45:08.316Z,1.70
2018-01-17T19:47:37.064Z,1.07
2018-01-17T19:50:04.983Z,1.53
2018-01-17T19:52:32.824Z,0.70
2018-01-17T19:55:01.174Z,1.03
2018-01-17T19:57:29.451Z,3.17
2018-01-17T19:59:57.309Z,1.43
2018-01-17T20:02:26.035Z,2.10
2018-01-17T20:04:55.242Z,0.80
2018-01-17T20:07:23.148Z,2.37
2018-01-17T20:09:51.215Z,2.43
2018-01-17T20:12:20.875Z,0.40
2018-01-17T20:14:49.525Z,1.27
2018-01-17T20:17:17.474Z,0.87
2018-01-17T20:19:47.301Z,0.47
2018-01-17T20:22:15.301Z,3.17
2018-01-17T20:24:43.121Z,1.40
2018-01-17T20:27:10.993Z,0.87
2018-01-17T20:29:38.805Z,3.80
2018-01-17T20:32:06.527Z,3.33
2018-01-17T20:34:34.418Z,2.30
2018-01-17T20:37:02.235Z,0.57
2018-01-17T20:39:35.675Z,0.93
2018-01-17T20:42:03.431Z,1.67
2018-01-17T20:44:31.186Z,3.40
2018-01-17T20:46:58.935Z,1.67
2018-01-17T20:49:26.728Z,0.30
2018-01-17T20:51:54.491Z,0.40
2018-01-17T20:54:22.302Z,1.67
2018-01-17T20:56:50.051Z,0.37
2018-01-17T20:59:17.831Z,0.90
2018-01-17T21:01:45.647Z,0.30
2018-01-17T21:04:13.491Z,1.20
2018-01-17T21:06:41.221Z,2.10
2018-01-17T21:09:09.415Z,0.77
2018-01-17T21:11:37.379Z,1.53
2018-01-17T21:14:05.120Z,0.47
2018-01-17T21:16:32.878Z,0.53
2018-01-17T21:19:00.695Z,2.73
2018-01-17T21:21:28.608Z,1.83
2018-01-17T21:23:56.325Z,2.13
2018-01-17T21:26:24.182Z,5.50
2018-01-17T21:28:51.871Z,1.67
2018-01-17T21:31:19.576Z,5.00
2018-01-17T21:33:47.346Z,1.80
2018-01-17T21:36:15.101Z,4.40
2018-01-17T21:38:42.828Z,3.17
2018-01-17T21:41:10.653Z,6.60
2018-01-17T21:43:43.861Z,9.10
2018-01-17T21:46:11.847Z,1.50
2018-01-17T21:48:39.602Z,3.43
2018-01-17T21:51:07.554Z,1.63
2018-01-17T21:53:35.310Z,2.10
2018-01-17T21:56:03.117Z,0.43
2018-01-17T21:58:30.825Z,6.00
2018-01-17T22:00:58.578Z,10.03
2018-01-17T22:03:26.314Z,0.97
2018-01-17T22:05:54.088Z,1.50
2018-01-17T22:08:21.743Z,2.40
2018-01-17T22:10:50.317Z,0.40
2018-01-17T22:13:17.982Z,3.13
2018-01-17T22:15:45.666Z,3.07
2018-01-17T22:18:13.402Z,10.27
2018-01-17T22:20:41.100Z,1.43
2018-01-17T22:23:08.816Z,2.77
2018-01-17T22:25:36.553Z,2.23
2018-01-17T22:28:04.346Z,4.83
2018-01-17T22:30:32.027Z,5.03
2018-01-17T22:32:59.900Z,6.23
2018-01-17T22:35:27.613Z,3.70
2018-01-17T22:37:55.363Z,1.30
2018-01-17T22:40:23.029Z,1.37
2018-01-17T22:42:50.781Z,1.33
2018-01-17T22:45:18.493Z,2.10
2018-01-17T22:47:46.164Z,6.13
2018-01-17T22:50:13.904Z,1.73
2018-01-17T22:52:41.667Z,3.43
2018-01-17T22:55:09.406Z,1.03
2018-01-17T22:57:37.123Z,2.13
2018-01-17T23:00:04.923Z,4.10
2018-01-17T23:02:32.678Z,2.67
2018-01-17T23:05:00.383Z,10.67
2018-01-17T23:07:28.114Z,6.33
2018-01-17T23:09:55.856Z,5.70
2018-01-17T23:12:23.552Z,4.57
2018-01-17T23:14:51.220Z,4.27
2018-01-17T23:17:19.009Z,12.20
2018-01-17T23:19:46.775Z,4.43
2018-01-17T23:22:14.451Z,5.73
2018-01-17T23:24:42.227Z,1.63
2018-01-17T23:27:09.966Z,0.40
2018-01-17T23:29:37.644Z,4.40
2018-01-17T23:32:05.385Z,1.23
2018-01-17T23:34:33.066Z,3.50
2018-01-17T23:37:00.792Z,3.67
2018-01-17T23:39:28.556Z,0.60
2018-01-17T23:41:56.270Z,3.37
2018-01-17T23:44:23.969Z,4.40
2018-01-17T23:46:51.710Z,2.63
2018-01-17T23:49:19.418Z,4.63
2018-01-17T23:51:47.175Z,2.80
2018-01-17T23:54:14.913Z,1.67
2018-01-17T23:56:42.777Z,3.77
2018-01-17T23:59:10.539Z,4.30
